createdAt,value
2022-10-08T00:00:05.449Z,22.8
2022-10-08T00:01:05.670Z,21.9
2022-10-08T00:02:04.247Z,21.4
2022-10-08T00:03:04.055Z,22.8
2022-10-08T00:04:03.968Z,21.4
2022-10-08T00:05:05.019Z,22.1
2022-10-08T00:06:10.423Z,20.4
2022-10-08T00:07:04.710Z,24.0
2022-10-08T00:08:05.134Z,22.2
2022-10-08T00:09:05.237Z,22.9
2022-10-08T00:10:04.992Z,23.3
2022-10-08T00:11:06.118Z,24.9
2022-10-08T00:12:04.685Z,23.3
2022-10-08T00:13:03.998Z,24.6
2022-10-08T00:14:06.127Z,21.9
2022-10-08T00:15:04.699Z,23.4
2022-10-08T00:16:04.633Z,21.6
2022-10-08T00:17:04.818Z,21.1
2022-10-08T00:18:04.147Z,21.4
2022-10-08T00:19:09.285Z,20.2
2022-10-08T00:20:04.953Z,20.5
2022-10-08T00:21:05.832Z,21.1
2022-10-08T00:22:04.758Z,21.4
2022-10-08T00:23:04.081Z,21.2
2022-10-08T00:24:04.891Z,20.2
2022-10-08T00:25:04.452Z,20.2
2022-10-08T00:26:04.160Z,21.1
2022-10-08T00:27:03.879Z,20.7
2022-10-08T00:28:04.567Z,22.1
2022-10-08T00:29:04.792Z,22.9
2022-10-08T00:30:04.598Z,23.4
2022-10-08T00:31:07.930Z,19.7
2022-10-08T00:32:04.404Z,21.1
2022-10-08T00:33:04.586Z,20.5
2022-10-08T00:34:06.132Z,22.1
2022-10-08T00:35:04.793Z,20.7
2022-10-08T00:36:05.871Z,22.1
2022-10-08T00:37:04.434Z,20.9
2022-10-08T00:38:05.346Z,21.3
2022-10-08T00:39:06.204Z,20.0
2022-10-08T00:40:04.507Z,18.8
2022-10-08T00:41:05.298Z,22.8
2022-10-08T00:42:04.836Z,22.5
2022-10-08T00:43:04.579Z,20.5
2022-10-08T00:44:22.175Z,20.2
2022-10-08T00:45:05.049Z,19.7
2022-10-08T00:46:04.666Z,20.3
2022-10-08T00:47:04.532Z,20.0
2022-10-08T00:48:04.241Z,19.3
2022-10-08T00:49:09.286Z,20.4
2022-10-08T00:50:11.969Z,19.2
2022-10-08T00:51:04.571Z,20.6
2022-10-08T00:52:04.725Z,20.0
2022-10-08T00:53:06.110Z,20.0
2022-10-08T00:54:04.283Z,20.7
2022-10-08T00:55:05.953Z,22.4
2022-10-08T00:56:04.718Z,19.8
2022-10-08T00:57:04.311Z,21.4
2022-10-08T00:58:08.783Z,20.2
2022-10-08T00:59:05.029Z,20.2
2022-10-08T01:00:09.500Z,19.7
2022-10-08T01:01:04.777Z,21.2
2022-10-08T01:02:04.820Z,20.8
2022-10-08T01:03:04.570Z,20.3
2022-10-08T01:04:05.301Z,20.0
2022-10-08T01:05:05.294Z,20.5
2022-10-08T01:06:14.690Z,19.8
2022-10-08T01:07:06.792Z,20.7
2022-10-08T01:08:09.496Z,20.4
2022-10-08T01:09:08.745Z,18.6
2022-10-08T01:10:14.705Z,20.0
2022-10-08T01:11:12.192Z,19.3
2022-10-08T01:12:24.203Z,19.9
2022-10-08T01:13:21.217Z,17.5
2022-10-08T01:14:20.707Z,21.3
2022-10-08T01:15:12.238Z,19.7
2022-10-08T01:16:14.830Z,21.2
2022-10-08T01:17:22.646Z,20.5
2022-10-08T01:18:16.843Z,20.4
2022-10-08T01:19:23.726Z,20.7
2022-10-08T01:20:12.192Z,20.4
2022-10-08T01:21:17.510Z,19.2
2022-10-08T01:22:09.109Z,19.2
2022-10-08T01:23:09.343Z,21.9
2022-10-08T01:24:09.500Z,17.4
2022-10-08T01:25:22.645Z,19.0
2022-10-08T01:26:12.206Z,19.6
2022-10-08T01:27:05.877Z,18.4
2022-10-08T01:28:22.226Z,21.3
2022-10-08T01:29:08.025Z,18.5
2022-10-08T01:30:05.992Z,20.1
2022-10-08T01:31:07.031Z,20.5
2022-10-08T01:32:07.832Z,21.0
2022-10-08T01:33:12.211Z,21.5
2022-10-08T01:34:17.087Z,20.2
2022-10-08T01:35:08.785Z,20.6
2022-10-08T01:36:04.731Z,20.2
2022-10-08T01:37:05.871Z,18.4
2022-10-08T01:38:05.206Z,19.6
2022-10-08T01:39:07.360Z,19.2
2022-10-08T01:40:07.485Z,19.6
2022-10-08T01:41:05.953Z,19.0
2022-10-08T01:42:06.576Z,19.1
2022-10-08T01:43:07.461Z,19.1
2022-10-08T01:44:08.736Z,19.7
2022-10-08T01:45:06.357Z,19.1
2022-10-08T01:46:13.235Z,19.3
2022-10-08T01:47:06.066Z,19.6
2022-10-08T01:48:06.043Z,19.8
2022-10-08T01:49:09.043Z,18.9
2022-10-08T01:50:10.561Z,21.2
2022-10-08T01:51:06.704Z,17.7
2022-10-08T01:52:12.201Z,19.5
2022-10-08T01:53:08.065Z,19.9
2022-10-08T01:54:05.939Z,20.2
2022-10-08T01:55:06.370Z,19.3
2022-10-08T01:56:06.282Z,18.6
2022-10-08T01:57:05.105Z,18.6
2022-10-08T01:58:10.440Z,19.2
2022-10-08T01:59:12.213Z,21.0
2022-10-08T02:00:06.541Z,18.6
2022-10-08T02:01:07.831Z,20.0
2022-10-08T02:02:12.281Z,17.1
2022-10-08T02:03:04.194Z,17.8
2022-10-08T02:04:04.422Z,20.1
2022-10-08T02:05:04.618Z,19.6
2022-10-08T02:06:05.270Z,19.9
2022-10-08T02:07:08.454Z,17.1
2022-10-08T02:08:04.324Z,18.2
2022-10-08T02:09:04.350Z,20.1
2022-10-08T02:10:07.419Z,17.3
2022-10-08T02:11:04.229Z,19.1
2022-10-08T02:12:04.403Z,18.0
2022-10-08T02:13:04.625Z,18.9
2022-10-08T02:14:04.470Z,20.8
2022-10-08T02:15:04.776Z,18.2
2022-10-08T02:16:14.105Z,16.6
2022-10-08T02:17:11.693Z,19.2
2022-10-08T02:18:07.118Z,18.5
2022-10-08T02:19:14.326Z,18.8
2022-10-08T02:20:12.372Z,19.4
2022-10-08T02:21:09.507Z,17.9
2022-10-08T02:22:04.739Z,18.0
2022-10-08T02:23:14.713Z,17.9
2022-10-08T02:24:08.844Z,18.6
2022-10-08T02:25:15.217Z,18.5
2022-10-08T02:26:07.315Z,19.7
2022-10-08T02:27:07.312Z,19.4
2022-10-08T02:28:15.272Z,17.2
2022-10-08T02:29:14.205Z,17.0
2022-10-08T02:30:08.827Z,19.1
2022-10-08T02:31:09.208Z,19.2
2022-10-08T02:32:07.469Z,18.8
2022-10-08T02:33:09.225Z,18.0
2022-10-08T02:34:22.661Z,16.7
2022-10-08T02:35:19.197Z,18.3
2022-10-08T02:36:05.356Z,19.0
2022-10-08T02:37:14.288Z,19.1
2022-10-08T02:38:11.712Z,21.3
2022-10-08T02:39:05.220Z,20.4
2022-10-08T02:40:06.858Z,17.3
2022-10-08T02:41:06.532Z,16.1
2022-10-08T02:42:06.980Z,18.1
2022-10-08T02:43:07.550Z,18.6
2022-10-08T02:44:06.845Z,18.2
2022-10-08T02:45:07.325Z,19.6
2022-10-08T02:46:10.928Z,18.3
2022-10-08T02:47:06.775Z,19.9
2022-10-08T02:48:07.576Z,17.5
2022-10-08T02:49:15.647Z,19.4
2022-10-08T02:50:11.380Z,17.6
2022-10-08T02:51:06.797Z,17.9
2022-10-08T02:52:07.131Z,17.6
2022-10-08T02:53:04.754Z,19.9
2022-10-08T02:54:05.458Z,18.7
2022-10-08T02:55:12.341Z,18.6
2022-10-08T02:56:17.721Z,15.2
2022-10-08T02:57:09.748Z,17.6
2022-10-08T02:58:07.347Z,18.9
2022-10-08T02:59:04.430Z,19.0
2022-10-08T03:00:04.476Z,18.2
2022-10-08T03:01:24.333Z,17.9
2022-10-08T03:02:05.202Z,18.1
2022-10-08T03:03:09.614Z,18.9
2022-10-08T03:04:08.706Z,19.3
2022-10-08T03:05:07.736Z,16.8
2022-10-08T03:06:06.050Z,18.5
2022-10-08T03:07:04.666Z,17.9
2022-10-08T03:08:05.518Z,18.5
2022-10-08T03:09:05.834Z,18.3
2022-10-08T03:10:05.386Z,16.2
2022-10-08T03:11:04.866Z,18.8
2022-10-08T03:12:04.821Z,18.1
2022-10-08T03:13:05.206Z,19.1
2022-10-08T03:14:05.866Z,16.8
2022-10-08T03:15:05.259Z,18.1
2022-10-08T03:16:05.792Z,18.1
2022-10-08T03:17:05.673Z,19.7
2022-10-08T03:18:06.224Z,18.1
2022-10-08T03:19:05.998Z,16.0
2022-10-08T03:20:04.984Z,17.2
2022-10-08T03:21:06.651Z,18.0
2022-10-08T03:22:04.601Z,17.7
2022-10-08T03:23:04.845Z,17.6
2022-10-08T03:24:05.317Z,17.1
2022-10-08T03:25:04.430Z,20.9
2022-10-08T03:26:04.292Z,17.2
2022-10-08T03:27:04.020Z,17.9
2022-10-08T03:28:03.900Z,17.0
2022-10-08T03:29:06.129Z,18.5
2022-10-08T03:30:04.774Z,19.2
2022-10-08T03:31:04.751Z,17.6
2022-10-08T03:32:04.481Z,19.3
2022-10-08T03:33:03.933Z,18.3
2022-10-08T03:34:04.696Z,17.1
2022-10-08T03:35:04.586Z,16.0
2022-10-08T03:36:04.524Z,17.1
2022-10-08T03:37:04.529Z,18.2
2022-10-08T03:38:03.955Z,17.8
2022-10-08T03:39:04.049Z,16.4
2022-10-08T03:40:04.383Z,18.9
2022-10-08T03:41:04.813Z,16.3
2022-10-08T03:42:04.169Z,19.1
2022-10-08T03:43:04.024Z,17.8
2022-10-08T03:44:06.796Z,16.5
2022-10-08T03:45:05.344Z,16.3
2022-10-08T03:46:04.288Z,16.8
2022-10-08T03:47:04.591Z,18.5
2022-10-08T03:48:04.435Z,17.3
2022-10-08T03:49:04.274Z,17.7
2022-10-08T03:50:04.848Z,17.5
2022-10-08T03:51:05.971Z,18.2
2022-10-08T03:52:04.665Z,19.9
2022-10-08T03:53:04.478Z,17.0
2022-10-08T03:54:04.335Z,16.0
2022-10-08T03:55:04.904Z,16.6
2022-10-08T03:56:05.906Z,17.4
2022-10-08T03:57:04.644Z,16.7
2022-10-08T03:58:04.498Z,19.0
2022-10-08T03:59:04.319Z,17.6
2022-10-08T04:00:04.933Z,16.9
2022-10-08T04:01:08.355Z,18.6
2022-10-08T04:02:04.533Z,17.7
2022-10-08T04:03:04.794Z,16.7
2022-10-08T04:04:04.291Z,17.7
2022-10-08T04:05:04.475Z,16.3
2022-10-08T04:06:04.089Z,18.3
2022-10-08T04:07:04.268Z,16.1
2022-10-08T04:08:04.016Z,15.8
2022-10-08T04:09:04.239Z,17.8
2022-10-08T04:10:04.209Z,17.6
2022-10-08T04:11:04.902Z,17.8
2022-10-08T04:12:04.727Z,16.1
2022-10-08T04:13:03.995Z,17.2
2022-10-08T04:14:04.666Z,17.7
2022-10-08T04:15:04.966Z,15.7
2022-10-08T04:16:05.550Z,17.1
2022-10-08T04:17:04.638Z,17.8
2022-10-08T04:18:04.505Z,16.8
2022-10-08T04:19:04.345Z,15.9
2022-10-08T04:20:04.386Z,16.7
2022-10-08T04:21:05.075Z,16.5
2022-10-08T04:22:04.194Z,17.5
2022-10-08T04:23:04.092Z,16.0
2022-10-08T04:24:04.617Z,17.0
2022-10-08T04:25:04.673Z,17.5
2022-10-08T04:26:04.482Z,16.5
2022-10-08T04:27:04.165Z,14.5
2022-10-08T04:28:04.722Z,17.3
2022-10-08T04:29:04.293Z,16.1
2022-10-08T04:30:05.049Z,18.2
2022-10-08T04:31:05.716Z,18.6
2022-10-08T04:32:04.629Z,16.4
2022-10-08T04:33:04.427Z,16.8
2022-10-08T04:34:04.403Z,16.5
2022-10-08T04:35:04.437Z,17.4
2022-10-08T04:36:07.440Z,16.8
2022-10-08T04:37:04.207Z,16.0
2022-10-08T04:38:04.023Z,17.6
2022-10-08T04:39:04.404Z,15.8
2022-10-08T04:40:04.855Z,17.0
2022-10-08T04:41:07.793Z,16.8
2022-10-08T04:42:04.636Z,15.8
2022-10-08T04:43:03.989Z,17.7
2022-10-08T04:44:04.245Z,17.4
2022-10-08T04:45:04.391Z,17.4
2022-10-08T04:46:04.752Z,17.1
2022-10-08T04:47:04.148Z,16.7
2022-10-08T04:48:03.983Z,17.2
2022-10-08T04:49:04.732Z,16.1
2022-10-08T04:50:04.938Z,16.0
2022-10-08T04:51:09.441Z,16.9
2022-10-08T04:52:04.544Z,18.4
2022-10-08T04:53:04.997Z,16.4
2022-10-08T04:54:04.284Z,17.2
2022-10-08T04:55:04.474Z,16.2
2022-10-08T04:56:14.193Z,16.5
2022-10-08T04:57:04.156Z,16.9
2022-10-08T04:58:03.997Z,15.9
2022-10-08T04:59:04.216Z,17.3
2022-10-08T05:00:18.680Z,15.4
2022-10-08T05:01:04.948Z,15.5
2022-10-08T05:02:04.201Z,17.3
2022-10-08T05:03:04.608Z,17.6
2022-10-08T05:04:04.639Z,17.2
2022-10-08T05:05:04.802Z,16.0
2022-10-08T05:06:05.071Z,17.2
2022-10-08T05:07:04.093Z,15.4
2022-10-08T05:08:04.337Z,16.1
2022-10-08T05:09:04.199Z,15.1
2022-10-08T05:10:04.315Z,15.6
2022-10-08T05:11:04.514Z,16.7
2022-10-08T05:12:04.103Z,17.0
2022-10-08T05:13:03.881Z,16.2
2022-10-08T05:14:04.633Z,15.5
2022-10-08T05:15:04.716Z,15.3
2022-10-08T05:16:11.029Z,14.8
2022-10-08T05:17:04.047Z,16.5
2022-10-08T05:18:03.863Z,16.4
2022-10-08T05:19:05.322Z,15.0
2022-10-08T05:20:04.616Z,16.0
2022-10-08T05:21:05.685Z,15.4
2022-10-08T05:22:04.535Z,15.5
2022-10-08T05:23:04.366Z,16.6
2022-10-08T05:24:05.823Z,17.6
2022-10-08T05:25:04.855Z,15.6
2022-10-08T05:26:17.473Z,16.0
2022-10-08T05:27:04.516Z,15.3
2022-10-08T05:28:04.068Z,16.2
2022-10-08T05:29:04.715Z,13.8
2022-10-08T05:30:04.427Z,16.6
2022-10-08T05:31:04.796Z,18.1
2022-10-08T05:32:04.600Z,14.0
2022-10-08T05:33:04.400Z,14.7
2022-10-08T05:34:04.249Z,17.3
2022-10-08T05:35:04.281Z,15.4
2022-10-08T05:36:05.325Z,15.6
2022-10-08T05:37:04.574Z,14.1
2022-10-08T05:38:04.242Z,16.5
2022-10-08T05:39:04.991Z,15.7
2022-10-08T05:40:04.806Z,17.5
2022-10-08T05:41:07.664Z,16.2
2022-10-08T05:42:04.201Z,16.2
2022-10-08T05:43:04.441Z,15.4
2022-10-08T05:44:04.886Z,16.2
2022-10-08T05:45:04.500Z,17.0
2022-10-08T05:46:04.219Z,18.3
2022-10-08T05:47:04.196Z,15.2
2022-10-08T05:48:04.028Z,14.8
2022-10-08T05:49:05.276Z,17.6
2022-10-08T05:50:04.404Z,17.3
2022-10-08T05:51:16.651Z,16.3
2022-10-08T05:52:04.128Z,17.0
2022-10-08T05:53:08.580Z,15.4
2022-10-08T05:54:04.485Z,15.2
2022-10-08T05:55:04.369Z,15.4
2022-10-08T05:56:05.647Z,15.6
2022-10-08T05:57:04.667Z,15.1
2022-10-08T05:58:03.924Z,16.1
2022-10-08T05:59:04.654Z,16.5
2022-10-08T06:00:04.741Z,16.7
2022-10-08T06:01:08.897Z,17.9
2022-10-08T06:02:04.678Z,17.6
2022-10-08T06:03:04.241Z,14.7
2022-10-08T06:04:08.493Z,16.8
2022-10-08T06:05:04.962Z,16.6
2022-10-08T06:06:05.694Z,16.7
2022-10-08T06:07:04.702Z,16.6
2022-10-08T06:08:04.497Z,15.2
2022-10-08T06:09:05.019Z,14.2
2022-10-08T06:10:04.544Z,16.6
2022-10-08T06:11:04.747Z,16.0
2022-10-08T06:12:04.277Z,16.8
2022-10-08T06:13:04.089Z,13.1
2022-10-08T06:14:05.246Z,17.7
2022-10-08T06:15:04.450Z,14.8
2022-10-08T06:16:05.391Z,16.5
2022-10-08T06:17:04.680Z,16.4
2022-10-08T06:18:04.546Z,15.9
2022-10-08T06:19:05.299Z,15.1
2022-10-08T06:20:04.469Z,16.1
2022-10-08T06:21:05.568Z,15.1
2022-10-08T06:22:04.668Z,15.0
2022-10-08T06:23:04.549Z,14.3
2022-10-08T06:24:05.543Z,14.4
2022-10-08T06:25:05.021Z,15.2
2022-10-08T06:26:08.437Z,15.8
2022-10-08T06:27:04.561Z,15.4
2022-10-08T06:28:04.156Z,14.4
2022-10-08T06:29:05.365Z,15.3
2022-10-08T06:30:04.595Z,15.4
2022-10-08T06:31:04.644Z,14.1
2022-10-08T06:32:04.681Z,15.0
2022-10-08T06:33:04.517Z,16.0
2022-10-08T06:34:04.916Z,15.3
2022-10-08T06:35:04.552Z,16.4
2022-10-08T06:36:09.396Z,15.1
2022-10-08T06:37:04.493Z,14.7
2022-10-08T06:38:04.431Z,14.5
2022-10-08T06:39:08.863Z,13.9
2022-10-08T06:40:04.974Z,14.5
2022-10-08T06:41:04.701Z,14.1
2022-10-08T06:42:04.069Z,15.0
2022-10-08T06:43:05.328Z,15.9
2022-10-08T06:44:05.610Z,15.2
2022-10-08T06:45:05.077Z,14.7
2022-10-08T06:46:04.826Z,16.9
2022-10-08T06:47:04.455Z,15.8
2022-10-08T06:48:04.636Z,15.4
2022-10-08T06:49:04.087Z,16.4
2022-10-08T06:50:04.942Z,16.3
2022-10-08T06:51:08.945Z,16.4
2022-10-08T06:52:03.875Z,15.0
2022-10-08T06:53:05.322Z,16.4
2022-10-08T06:54:07.512Z,15.8
2022-10-08T06:55:04.490Z,14.5
2022-10-08T06:56:05.587Z,14.3
2022-10-08T06:57:04.301Z,15.4
2022-10-08T06:58:04.770Z,15.5
2022-10-08T06:59:04.630Z,14.1
2022-10-08T07:00:05.174Z,14.1
2022-10-08T07:01:12.419Z,14.0
2022-10-08T07:02:04.323Z,14.1
2022-10-08T07:03:04.151Z,14.8
2022-10-08T07:04:04.719Z,14.7
2022-10-08T07:05:05.141Z,14.8
2022-10-08T07:06:05.990Z,15.6
2022-10-08T07:07:04.451Z,14.7
2022-10-08T07:08:04.662Z,15.7
2022-10-08T07:09:04.246Z,17.0
2022-10-08T07:10:04.518Z,13.9
2022-10-08T07:11:04.970Z,15.5
2022-10-08T07:12:03.973Z,13.0
2022-10-08T07:13:04.708Z,15.2
2022-10-08T07:14:04.565Z,13.0
2022-10-08T07:15:04.056Z,15.7
2022-10-08T07:16:08.810Z,14.3
2022-10-08T07:17:04.492Z,13.7
2022-10-08T07:18:04.743Z,13.7
2022-10-08T07:19:04.142Z,15.0
2022-10-08T07:20:04.818Z,14.8
2022-10-08T07:21:04.879Z,16.0
2022-10-08T07:22:04.522Z,14.2
2022-10-08T07:23:04.572Z,14.6
2022-10-08T07:24:04.166Z,12.8
2022-10-08T07:25:04.296Z,14.4
2022-10-08T07:26:09.590Z,14.2
2022-10-08T07:27:04.595Z,13.2
2022-10-08T07:28:03.896Z,14.9
2022-10-08T07:29:10.780Z,13.6
2022-10-08T07:30:04.921Z,14.9
2022-10-08T07:31:05.599Z,15.7
2022-10-08T07:32:04.591Z,14.8
2022-10-08T07:33:03.969Z,15.0
2022-10-08T07:34:05.971Z,12.7
2022-10-08T07:35:04.317Z,13.0
2022-10-08T07:36:09.661Z,12.8
2022-10-08T07:37:04.596Z,13.9
2022-10-08T07:38:04.510Z,16.5
2022-10-08T07:39:05.623Z,14.5
2022-10-08T07:40:04.795Z,13.5
2022-10-08T07:41:04.791Z,16.0
2022-10-08T07:42:04.150Z,16.7
2022-10-08T07:43:04.880Z,15.8
2022-10-08T07:44:04.592Z,15.6
2022-10-08T07:45:04.463Z,17.3
2022-10-08T07:46:07.495Z,16.8
2022-10-08T07:47:04.524Z,16.6
2022-10-08T07:48:04.309Z,16.3
2022-10-08T07:49:04.168Z,16.4
2022-10-08T07:50:04.629Z,18.4
2022-10-08T07:51:08.001Z,19.1
2022-10-08T07:52:04.562Z,20.5
2022-10-08T07:53:04.391Z,16.6
2022-10-08T07:54:05.456Z,22.3
2022-10-08T07:55:04.580Z,22.1
2022-10-08T07:56:05.396Z,22.0
2022-10-08T07:57:04.391Z,20.3
2022-10-08T07:58:04.818Z,19.7
2022-10-08T07:59:05.286Z,19.8
2022-10-08T08:00:04.482Z,23.1
2022-10-08T08:01:05.770Z,22.6
2022-10-08T08:02:04.118Z,17.8
2022-10-08T08:03:04.331Z,17.3
2022-10-08T08:04:05.684Z,17.4
2022-10-08T08:05:04.275Z,16.6
2022-10-08T08:06:05.431Z,17.5
2022-10-08T08:07:04.032Z,18.8
2022-10-08T08:08:04.429Z,16.8
2022-10-08T08:09:04.573Z,18.6
2022-10-08T08:10:04.909Z,16.9
2022-10-08T08:11:05.028Z,17.2
2022-10-08T08:12:04.518Z,17.9
2022-10-08T08:13:04.339Z,18.5
2022-10-08T08:14:04.763Z,17.4
2022-10-08T08:15:04.847Z,18.4
2022-10-08T08:16:11.873Z,18.2
2022-10-08T08:17:04.757Z,18.3
2022-10-08T08:18:04.427Z,17.6
2022-10-08T08:19:05.062Z,17.6
2022-10-08T08:20:04.143Z,19.4
2022-10-08T08:21:08.567Z,20.0
2022-10-08T08:22:04.469Z,17.6
2022-10-08T08:23:04.408Z,19.7
2022-10-08T08:24:06.822Z,18.0
2022-10-08T08:25:04.853Z,20.6
2022-10-08T08:26:05.745Z,19.0
2022-10-08T08:27:04.193Z,16.7
2022-10-08T08:28:04.493Z,18.0
2022-10-08T08:29:09.622Z,20.1
2022-10-08T08:30:04.692Z,17.9
2022-10-08T08:31:13.669Z,20.0
2022-10-08T08:32:04.609Z,17.9
2022-10-08T08:33:04.364Z,19.4
2022-10-08T08:34:06.049Z,17.3
2022-10-08T08:35:04.866Z,18.5
2022-10-08T08:36:04.511Z,18.1
2022-10-08T08:37:04.186Z,21.1
2022-10-08T08:38:03.962Z,16.2
2022-10-08T08:39:06.086Z,18.4
2022-10-08T08:40:04.885Z,17.7
2022-10-08T08:41:12.764Z,17.7
2022-10-08T08:42:27.374Z,19.0
2022-10-08T08:43:04.035Z,17.8
2022-10-08T08:44:12.367Z,19.4
2022-10-08T08:45:22.770Z,18.7
2022-10-08T08:46:04.746Z,18.7
2022-10-08T08:47:11.773Z,23.4
2022-10-08T08:48:08.846Z,22.0
2022-10-08T08:49:06.702Z,20.5
2022-10-08T08:50:09.395Z,20.9
2022-10-08T08:51:04.384Z,21.3
2022-10-08T08:52:05.322Z,21.6
2022-10-08T08:53:06.768Z,20.5
2022-10-08T08:54:04.734Z,20.5
2022-10-08T08:55:09.429Z,18.8
2022-10-08T08:56:05.854Z,19.0
2022-10-08T08:57:09.122Z,19.3
2022-10-08T08:58:12.273Z,19.7
2022-10-08T08:59:23.277Z,19.3
2022-10-08T09:00:14.954Z,19.7
2022-10-08T09:01:09.508Z,21.2
2022-10-08T09:02:09.254Z,19.6
2022-10-08T09:03:05.565Z,20.1
2022-10-08T09:04:11.804Z,19.7
2022-10-08T09:05:07.122Z,20.9
2022-10-08T09:06:06.637Z,20.3
2022-10-08T09:07:06.708Z,19.2
2022-10-08T09:08:17.302Z,18.6
2022-10-08T09:09:09.338Z,20.1
2022-10-08T09:10:05.203Z,19.1
2022-10-08T09:11:04.251Z,18.0
2022-10-08T09:12:20.817Z,18.9
2022-10-08T09:13:09.111Z,19.6
2022-10-08T09:14:12.284Z,21.4
2022-10-08T09:15:09.796Z,18.7
2022-10-08T09:16:04.673Z,18.6
2022-10-08T09:17:09.363Z,19.6
2022-10-08T09:18:04.405Z,17.9
2022-10-08T09:19:04.057Z,19.3
2022-10-08T09:20:04.686Z,19.5
2022-10-08T09:21:04.217Z,20.2
2022-10-08T09:22:08.137Z,19.1
2022-10-08T09:23:09.617Z,19.5
2022-10-08T09:24:04.673Z,21.0
2022-10-08T09:25:06.197Z,20.9
2022-10-08T09:26:11.768Z,20.5
2022-10-08T09:27:09.290Z,20.9
2022-10-08T09:28:04.466Z,21.3
2022-10-08T09:29:04.496Z,21.7
2022-10-08T09:30:09.377Z,22.2
2022-10-08T09:31:09.388Z,21.5
2022-10-08T09:32:04.751Z,19.8
2022-10-08T09:33:17.781Z,21.0
2022-10-08T09:34:14.782Z,21.1
2022-10-08T09:35:07.022Z,20.8
2022-10-08T09:36:04.617Z,20.6
2022-10-08T09:37:05.106Z,19.0
2022-10-08T09:38:06.152Z,22.9
2022-10-08T09:39:05.575Z,20.6
2022-10-08T09:40:17.823Z,19.3
2022-10-08T09:41:17.491Z,20.4
2022-10-08T09:42:12.279Z,20.2
2022-10-08T09:43:15.428Z,19.7
2022-10-08T09:44:09.356Z,18.0
2022-10-08T09:45:22.704Z,21.6
2022-10-08T09:46:12.413Z,20.7
2022-10-08T09:47:05.190Z,19.2
2022-10-08T09:48:11.917Z,20.3
2022-10-08T09:49:23.791Z,19.6
2022-10-08T09:50:06.270Z,23.3
2022-10-08T09:51:05.712Z,20.1
2022-10-08T09:52:17.364Z,22.9
2022-10-08T09:53:04.839Z,20.3
2022-10-08T09:54:04.668Z,19.7
2022-10-08T09:55:08.061Z,20.6
2022-10-08T09:56:05.385Z,20.6
2022-10-08T09:57:05.339Z,20.3
2022-10-08T09:58:04.569Z,19.2
2022-10-08T09:59:04.697Z,19.2
2022-10-08T10:00:06.269Z,18.7
2022-10-08T10:01:14.401Z,18.4
2022-10-08T10:02:05.146Z,19.6
2022-10-08T10:03:12.273Z,20.3
2022-10-08T10:04:04.487Z,19.5
2022-10-08T10:05:05.714Z,18.9
2022-10-08T10:06:04.281Z,19.4
2022-10-08T10:07:04.484Z,18.8
2022-10-08T10:08:04.106Z,19.4
2022-10-08T10:09:20.276Z,18.5
2022-10-08T10:10:08.537Z,19.5
2022-10-08T10:11:04.174Z,18.1
2022-10-08T10:12:17.790Z,19.8
2022-10-08T10:13:18.048Z,17.7
2022-10-08T10:14:18.281Z,16.9
2022-10-08T10:15:08.992Z,17.0
2022-10-08T10:16:08.045Z,16.4
2022-10-08T10:17:09.440Z,17.4
2022-10-08T10:18:09.403Z,17.3
2022-10-08T10:19:05.896Z,16.7
2022-10-08T10:20:09.599Z,18.8
2022-10-08T10:21:10.150Z,19.4
2022-10-08T10:22:09.224Z,19.7
2022-10-08T10:23:09.139Z,18.2
2022-10-08T10:24:17.825Z,18.5
2022-10-08T10:25:08.721Z,20.3
2022-10-08T10:26:22.673Z,16.7
2022-10-08T10:27:08.819Z,18.2
2022-10-08T10:28:20.517Z,16.8
2022-10-08T10:29:07.751Z,18.4
2022-10-08T10:30:08.897Z,17.2
2022-10-08T10:31:07.013Z,17.7
2022-10-08T10:32:09.107Z,17.2
2022-10-08T10:33:09.141Z,19.5
2022-10-08T10:34:16.121Z,18.8
2022-10-08T10:35:08.823Z,16.7
2022-10-08T10:36:06.304Z,17.8
2022-10-08T10:37:13.181Z,17.7
2022-10-08T10:38:07.827Z,17.9
2022-10-08T10:39:20.801Z,17.0
2022-10-08T10:40:11.332Z,17.7
2022-10-08T10:41:21.310Z,18.6
2022-10-08T10:42:18.338Z,16.6
2022-10-08T10:43:09.239Z,18.1
2022-10-08T10:44:09.505Z,18.9
2022-10-08T10:45:17.802Z,21.8
2022-10-08T10:46:09.145Z,18.1
2022-10-08T10:47:04.675Z,18.9
2022-10-08T10:48:04.413Z,18.8
2022-10-08T10:49:14.505Z,18.3
2022-10-08T10:50:04.904Z,17.3
2022-10-08T10:51:10.668Z,18.5
2022-10-08T10:52:08.868Z,18.6
2022-10-08T10:53:11.796Z,18.7
2022-10-08T10:54:22.753Z,20.5
2022-10-08T10:55:08.920Z,20.0
2022-10-08T10:56:11.817Z,20.1
2022-10-08T10:57:08.072Z,17.7
2022-10-08T10:58:09.227Z,17.1
2022-10-08T10:59:17.832Z,17.4
2022-10-08T11:00:09.390Z,19.0
2022-10-08T11:01:09.641Z,18.3
2022-10-08T11:02:22.784Z,19.1
2022-10-08T11:03:15.352Z,16.9
2022-10-08T11:04:14.883Z,18.1
2022-10-08T11:05:09.415Z,16.4
2022-10-08T11:06:11.805Z,19.0
2022-10-08T11:07:09.503Z,20.0
2022-10-08T11:08:22.239Z,17.3
2022-10-08T11:09:22.802Z,17.7
2022-10-08T11:10:12.316Z,17.8
2022-10-08T11:11:08.779Z,17.3
2022-10-08T11:12:12.308Z,16.8
2022-10-08T11:13:12.302Z,16.4
2022-10-08T11:14:09.166Z,16.2
2022-10-08T11:15:09.504Z,19.7
2022-10-08T11:16:14.908Z,18.3
2022-10-08T11:17:21.946Z,16.4
2022-10-08T11:18:19.878Z,17.4
2022-10-08T11:19:09.335Z,18.4
2022-10-08T11:20:15.409Z,17.0
2022-10-08T11:21:11.810Z,16.2
2022-10-08T11:22:23.815Z,15.5
2022-10-08T11:23:12.334Z,16.6
2022-10-08T11:24:09.200Z,17.0
2022-10-08T11:25:14.818Z,17.1
2022-10-08T11:26:23.752Z,16.2
2022-10-08T11:27:22.247Z,17.4
2022-10-08T11:28:24.425Z,18.0
2022-10-08T11:29:22.929Z,14.9
2022-10-08T11:30:15.384Z,16.7
2022-10-08T11:31:21.836Z,15.1
2022-10-08T11:32:09.467Z,16.5
2022-10-08T11:33:04.611Z,17.9
2022-10-08T11:34:08.155Z,18.2
2022-10-08T11:35:15.340Z,16.4
2022-10-08T11:36:20.359Z,17.8
2022-10-08T11:37:22.260Z,16.3
2022-10-08T11:38:12.819Z,18.2
2022-10-08T11:39:20.459Z,16.5
2022-10-08T11:40:17.857Z,18.2
2022-10-08T11:41:11.341Z,15.0
2022-10-08T11:42:22.869Z,16.1
2022-10-08T11:43:07.733Z,17.5
2022-10-08T11:44:07.082Z,17.5
2022-10-08T11:45:18.374Z,17.1
2022-10-08T11:46:26.302Z,17.1
2022-10-08T11:47:20.854Z,15.2
2022-10-08T11:48:17.841Z,16.6
2022-10-08T11:49:15.342Z,17.1
2022-10-08T11:50:04.509Z,17.8
2022-10-08T11:51:20.841Z,16.5
2022-10-08T11:52:09.196Z,17.8
2022-10-08T11:53:14.852Z,16.0
2022-10-08T11:54:15.375Z,17.1
2022-10-08T11:55:05.336Z,17.5
2022-10-08T11:56:04.450Z,15.8
2022-10-08T11:57:14.860Z,17.3
2022-10-08T11:58:08.145Z,19.5
2022-10-08T11:59:07.162Z,15.7
2022-10-08T12:00:08.747Z,16.5
2022-10-08T12:01:08.070Z,17.0
2022-10-08T12:02:22.920Z,16.4
2022-10-08T12:03:21.019Z,17.0
2022-10-08T12:04:09.549Z,17.0
2022-10-08T12:05:27.355Z,18.7
2022-10-08T12:06:17.845Z,17.3
2022-10-08T12:07:11.854Z,16.3
2022-10-08T12:08:04.087Z,17.0
2022-10-08T12:09:05.136Z,16.2
2022-10-08T12:10:09.472Z,16.2
2022-10-08T12:11:22.798Z,16.2
2022-10-08T12:12:09.061Z,19.2
2022-10-08T12:13:10.416Z,18.1
2022-10-08T12:14:17.367Z,15.9
2022-10-08T12:15:09.457Z,17.4
2022-10-08T12:16:04.561Z,16.3
2022-10-08T12:17:07.604Z,18.2
2022-10-08T12:18:14.877Z,15.7
2022-10-08T12:19:05.456Z,17.0
2022-10-08T12:20:09.067Z,18.9
2022-10-08T12:21:20.856Z,16.2
2022-10-08T12:22:09.107Z,15.9
2022-10-08T12:23:11.850Z,16.9
2022-10-08T12:24:08.805Z,15.3
2022-10-08T12:25:09.500Z,16.1
2022-10-08T12:26:09.081Z,16.2
2022-10-08T12:27:20.872Z,16.2
2022-10-08T12:28:24.405Z,16.7
2022-10-08T12:29:08.811Z,14.9
2022-10-08T12:30:09.094Z,14.8
2022-10-08T12:31:23.895Z,17.6
2022-10-08T12:32:04.669Z,17.3
2022-10-08T12:33:08.228Z,15.5
2022-10-08T12:34:14.359Z,15.7
2022-10-08T12:35:05.374Z,14.9
2022-10-08T12:36:11.862Z,15.5
2022-10-08T12:37:10.349Z,15.2
2022-10-08T12:38:22.841Z,16.1
2022-10-08T12:39:07.167Z,16.0
2022-10-08T12:40:11.944Z,15.5
2022-10-08T12:41:17.881Z,16.4
2022-10-08T12:42:18.888Z,16.8
2022-10-08T12:43:16.034Z,16.3
2022-10-08T12:44:08.808Z,17.5
2022-10-08T12:45:12.420Z,17.2
2022-10-08T12:46:14.940Z,17.1
2022-10-08T12:47:11.890Z,14.2
2022-10-08T12:48:09.037Z,15.9
2022-10-08T12:49:17.909Z,16.2
2022-10-08T12:50:09.091Z,16.6
2022-10-08T12:51:17.673Z,15.2
2022-10-08T12:52:09.171Z,15.9
2022-10-08T12:53:05.743Z,16.3
2022-10-08T12:54:04.373Z,15.1
2022-10-08T12:55:04.475Z,15.9
2022-10-08T12:56:04.484Z,14.7
2022-10-08T12:57:08.387Z,17.1
2022-10-08T12:58:04.138Z,16.9
2022-10-08T12:59:04.411Z,16.9
2022-10-08T13:00:06.337Z,15.9
2022-10-08T13:01:04.974Z,14.9
2022-10-08T13:02:09.670Z,15.1
2022-10-08T13:03:05.376Z,15.2
2022-10-08T13:04:18.006Z,15.2
2022-10-08T13:05:05.649Z,15.7
2022-10-08T13:06:13.765Z,14.6
2022-10-08T13:07:09.049Z,15.5
2022-10-08T13:08:17.164Z,16.9
2022-10-08T13:09:23.871Z,14.4
2022-10-08T13:10:08.947Z,16.3
2022-10-08T13:11:09.245Z,16.3
2022-10-08T13:12:04.664Z,15.6
2022-10-08T13:13:04.829Z,16.1
2022-10-08T13:14:04.230Z,16.4
2022-10-08T13:15:05.085Z,16.8
2022-10-08T13:16:09.428Z,14.4
2022-10-08T13:17:04.816Z,14.8
2022-10-08T13:18:13.800Z,16.4